Archival Weather

Tokyo Intl

Tokyo, Japan (RJTT)

Report from: Saturday, April 1, 2023 9:30 AM JST
Current time: Sunday, July 14, 2024 7:52 PM JST

Current weather – Weather history – Daily summaries
Weather forecast

Temperature17.0°C (62.6°F)
Dew point9.0°C (48.2°F)
Winds 6 kts (3.1 m/s, 6.9 mph) North (360°)
Clouds Sky clear
Altimeter30.03 in.Hg (1017 mB)
Relative humidity59 %
Density altitude273 ft. (83 m)
Remarks Ceiling and visibility OK
No significant changes expected in the next two hours
Flight conditions Visual Meteorological Conditions
Raw dataRJTT 010030Z 36006KT CAVOK 17/09 Q1017 NOSIG RMK A3004
An error has occurred. This application may no longer respond until reloaded. Reload 🗙